createdAt,value
2023-01-13T00:00:16.359Z,0.00
2023-01-13T00:02:43.312Z,0.00
2023-01-13T00:05:10.678Z,0.00
2023-01-13T00:07:40.037Z,0.00
2023-01-13T00:10:10.462Z,0.00
2023-01-13T00:12:42.193Z,0.00
2023-01-13T00:15:11.010Z,0.00
2023-01-13T00:17:38.819Z,0.00
2023-01-13T00:20:06.765Z,0.00
2023-01-13T00:22:35.163Z,0.00
2023-01-13T00:25:04.164Z,0.00
2023-01-13T00:27:31.489Z,0.00
2023-01-13T00:29:58.217Z,0.00
2023-01-13T00:32:25.027Z,0.00
2023-01-13T00:34:51.736Z,0.00
2023-01-13T00:37:18.428Z,0.00
2023-01-13T00:39:45.862Z,0.00
2023-01-13T00:42:31.672Z,0.00
2023-01-13T00:44:58.343Z,0.00
2023-01-13T00:47:24.955Z,0.00
2023-01-13T00:49:51.587Z,0.00
2023-01-13T00:52:18.239Z,0.00
2023-01-13T00:54:44.885Z,0.00
2023-01-13T00:57:11.500Z,0.00
2023-01-13T00:59:38.095Z,0.00
2023-01-13T01:02:04.879Z,0.00
2023-01-13T01:04:31.559Z,0.00
2023-01-13T01:06:58.188Z,0.00
2023-01-13T01:09:32.376Z,0.00
2023-01-13T01:12:00.449Z,0.00
2023-01-13T01:14:27.491Z,0.00
2023-01-13T01:16:54.639Z,0.00
2023-01-13T01:19:21.375Z,0.00
2023-01-13T01:21:48.025Z,0.00
2023-01-13T01:24:16.464Z,0.00
2023-01-13T01:26:43.115Z,0.00
2023-01-13T01:29:14.160Z,0.00
2023-01-13T01:31:40.887Z,0.00
2023-01-13T01:34:07.541Z,0.00
2023-01-13T01:36:35.214Z,0.00
2023-01-13T01:39:02.398Z,0.00
2023-01-13T01:41:32.210Z,0.00
2023-01-13T01:44:42.508Z,0.00
2023-01-13T01:47:18.159Z,0.00
2023-01-13T01:49:46.202Z,0.00
2023-01-13T01:52:20.164Z,0.43
2023-01-13T01:55:06.607Z,0.00
2023-01-13T01:57:46.277Z,0.00
2023-01-13T02:00:13.685Z,0.00
2023-01-13T02:02:43.554Z,0.00
2023-01-13T02:05:10.827Z,0.00
2023-01-13T02:07:40.124Z,0.00
2023-01-13T02:10:11.785Z,0.00
2023-01-13T02:12:40.040Z,0.00
2023-01-13T02:16:11.803Z,0.00
2023-01-13T02:19:14.195Z,0.00
2023-01-13T02:22:22.808Z,0.00
2023-01-13T02:25:23.431Z,0.00
2023-01-13T02:27:59.293Z,0.00
2023-01-13T02:31:25.455Z,0.00
2023-01-13T02:34:41.217Z,0.00
2023-01-13T02:37:16.170Z,0.00
2023-01-13T02:39:54.342Z,0.00
2023-01-13T02:42:57.607Z,0.00
2023-01-13T02:45:37.761Z,0.00
2023-01-13T02:48:08.002Z,0.00
2023-01-13T02:50:46.329Z,0.00
2023-01-13T02:53:23.770Z,0.00
2023-01-13T02:55:54.155Z,0.00
2023-01-13T02:58:27.218Z,0.00
2023-01-13T03:00:54.123Z,0.00
2023-01-13T03:03:21.043Z,0.00
2023-01-13T03:05:51.932Z,0.00
2023-01-13T03:08:53.944Z,0.00
2023-01-13T03:11:21.702Z,0.00
2023-01-13T03:13:53.168Z,0.00
2023-01-13T03:16:30.196Z,0.00
2023-01-13T03:19:26.639Z,0.00
2023-01-13T03:22:18.305Z,0.00
2023-01-13T03:25:06.101Z,0.00
2023-01-13T03:27:50.501Z,0.00
2023-01-13T03:30:33.837Z,0.45
2023-01-13T03:33:14.425Z,0.20
2023-01-13T03:35:46.058Z,0.75
2023-01-13T03:38:27.751Z,0.10
2023-01-13T03:40:59.403Z,0.60
2023-01-13T03:44:00.841Z,7.97
2023-01-13T03:47:08.453Z,2.63
2023-01-13T03:49:53.196Z,5.80
2023-01-13T03:52:28.161Z,11.88
2023-01-13T03:55:08.672Z,1.37
2023-01-13T03:57:45.695Z,7.10
2023-01-13T04:00:14.481Z,1.00
2023-01-13T04:02:49.636Z,7.85
2023-01-13T04:05:17.646Z,5.47
2023-01-13T04:08:02.324Z,6.03
2023-01-13T04:10:40.757Z,6.55
2023-01-13T04:13:12.531Z,3.35
2023-01-13T04:15:42.944Z,11.15
2023-01-13T04:18:13.606Z,4.00
2023-01-13T04:20:41.896Z,10.07
2023-01-13T04:23:09.583Z,8.05
2023-01-13T04:25:36.494Z,14.77
2023-01-13T04:28:03.531Z,10.55
2023-01-13T04:30:30.140Z,7.07
2023-01-13T04:32:56.859Z,2.63
2023-01-13T04:35:23.559Z,6.40
2023-01-13T04:37:50.255Z,9.15
2023-01-13T04:40:17.114Z,8.52
2023-01-13T04:42:47.277Z,24.25
2023-01-13T04:45:14.721Z,8.68
2023-01-13T04:47:41.899Z,7.13
2023-01-13T04:50:11.631Z,17.95
2023-01-13T04:52:38.948Z,7.25
2023-01-13T04:55:06.787Z,8.68
2023-01-13T04:57:35.010Z,8.52
2023-01-13T05:00:02.021Z,9.85
2023-01-13T05:02:28.636Z,13.32
2023-01-13T05:04:55.356Z,10.60
2023-01-13T05:07:22.023Z,16.95
2023-01-13T05:09:48.770Z,15.45
2023-01-13T05:12:33.981Z,10.60
2023-01-13T05:15:29.960Z,17.17
2023-01-13T05:17:56.905Z,19.00
2023-01-13T05:20:23.962Z,11.35
2023-01-13T05:23:09.335Z,12.50
2023-01-13T05:25:41.829Z,16.40
2023-01-13T05:28:10.214Z,16.33
2023-01-13T05:30:43.607Z,15.73
2023-01-13T05:33:12.143Z,18.92
2023-01-13T05:35:44.570Z,14.90
2023-01-13T05:38:12.540Z,14.43
2023-01-13T05:40:59.621Z,14.88
2023-01-13T05:43:27.233Z,15.85
2023-01-13T05:46:07.882Z,22.10
2023-01-13T05:48:41.563Z,10.80
2023-01-13T05:51:11.714Z,13.82
2023-01-13T05:53:40.591Z,8.77
2023-01-13T05:56:08.512Z,17.63
2023-01-13T05:58:35.417Z,11.60
2023-01-13T06:01:08.244Z,8.85
2023-01-13T06:03:35.332Z,10.30
2023-01-13T06:06:03.899Z,14.88
2023-01-13T06:08:31.796Z,12.00
2023-01-13T06:10:58.478Z,12.55
2023-01-13T06:13:25.435Z,12.85
2023-01-13T06:15:56.523Z,10.63
2023-01-13T06:18:23.300Z,10.88
2023-01-13T06:20:49.927Z,6.63
2023-01-13T06:23:16.546Z,11.18
2023-01-13T06:26:09.418Z,10.20
2023-01-13T06:28:36.160Z,9.68
2023-01-13T06:31:07.384Z,7.07
2023-01-13T06:33:55.775Z,10.85
2023-01-13T06:36:30.856Z,8.73
2023-01-13T06:39:01.187Z,7.13
2023-01-13T06:41:47.773Z,12.25
2023-01-13T06:44:14.895Z,6.22
2023-01-13T06:46:41.596Z,7.68
2023-01-13T06:49:08.791Z,7.07
2023-01-13T06:51:35.477Z,11.82
2023-01-13T06:54:02.204Z,5.15
2023-01-13T06:56:28.807Z,8.43
2023-01-13T06:58:55.425Z,9.05
2023-01-13T07:01:22.135Z,9.40
2023-01-13T07:03:48.850Z,5.05
2023-01-13T07:06:15.457Z,15.13
2023-01-13T07:08:42.036Z,10.90
2023-01-13T07:11:08.911Z,8.13
2023-01-13T07:13:54.210Z,7.38
2023-01-13T07:16:20.999Z,8.65
2023-01-13T07:18:47.642Z,10.32
2023-01-13T07:21:18.677Z,12.70
2023-01-13T07:23:47.160Z,8.30
2023-01-13T07:26:15.715Z,7.45
2023-01-13T07:28:42.622Z,8.68
2023-01-13T07:31:18.997Z,7.10
2023-01-13T07:33:45.813Z,11.30
2023-01-13T07:36:13.514Z,4.00
2023-01-13T07:38:40.668Z,8.80
2023-01-13T07:41:42.644Z,5.85
2023-01-13T07:44:10.768Z,5.75
2023-01-13T07:46:38.863Z,5.28
2023-01-13T07:49:06.072Z,4.28
2023-01-13T07:51:37.636Z,12.15
2023-01-13T07:54:05.169Z,7.15
2023-01-13T07:56:32.521Z,8.02
2023-01-13T07:59:00.978Z,7.38
2023-01-13T08:01:28.342Z,7.47
2023-01-13T08:03:56.265Z,8.20
2023-01-13T08:06:23.198Z,6.07
2023-01-13T08:08:50.378Z,7.82
2023-01-13T08:11:17.086Z,9.90
2023-01-13T08:13:43.832Z,5.63
2023-01-13T08:16:14.243Z,5.18
2023-01-13T08:18:42.241Z,3.70
2023-01-13T08:21:13.306Z,4.97
2023-01-13T08:23:42.349Z,4.10
2023-01-13T08:26:13.682Z,8.10
2023-01-13T08:28:40.573Z,11.38
2023-01-13T08:31:12.764Z,9.73
2023-01-13T08:33:40.344Z,10.13
2023-01-13T08:36:10.654Z,9.27
2023-01-13T08:38:38.423Z,13.60
2023-01-13T08:41:14.287Z,8.77
2023-01-13T08:46:07.919Z,13.27
2023-01-13T08:48:34.640Z,7.70
2023-01-13T08:51:08.710Z,11.77
2023-01-13T08:53:35.447Z,8.48
2023-01-13T08:56:02.220Z,15.20
2023-01-13T08:58:29.025Z,15.38
2023-01-13T09:00:55.745Z,13.10
2023-01-13T09:03:22.430Z,10.95
2023-01-13T09:05:49.075Z,15.23
2023-01-13T09:08:15.729Z,14.95
2023-01-13T09:10:42.406Z,8.93
2023-01-13T09:13:13.491Z,12.57
2023-01-13T09:15:42.564Z,16.27
2023-01-13T09:18:09.838Z,18.15
2023-01-13T09:20:36.612Z,14.65
2023-01-13T09:23:04.254Z,15.60
2023-01-13T09:25:31.850Z,17.95
2023-01-13T09:27:58.622Z,13.52
2023-01-13T09:30:25.442Z,17.98
2023-01-13T09:33:12.342Z,13.50
2023-01-13T09:35:39.080Z,13.13
2023-01-13T09:38:06.761Z,12.70
2023-01-13T09:40:33.751Z,19.40
2023-01-13T09:43:42.556Z,13.68
2023-01-13T09:46:44.117Z,15.43
2023-01-13T09:49:26.217Z,14.10
2023-01-13T09:52:02.790Z,13.02
2023-01-13T09:54:55.708Z,12.63
2023-01-13T09:57:22.409Z,13.80
2023-01-13T09:59:49.288Z,14.73
2023-01-13T10:02:57.257Z,11.55
2023-01-13T10:05:41.164Z,15.13
2023-01-13T10:08:26.796Z,20.23
2023-01-13T10:11:22.082Z,8.57
2023-01-13T10:13:57.895Z,13.98
2023-01-13T10:19:30.818Z,10.02
2023-01-13T10:22:21.721Z,15.07
2023-01-13T10:24:56.946Z,15.23
2023-01-13T10:27:40.620Z,17.58
2023-01-13T10:30:23.007Z,9.05
2023-01-13T10:32:57.388Z,13.77
2023-01-13T10:36:01.642Z,16.05
2023-01-13T10:38:42.325Z,14.85
2023-01-13T10:41:12.056Z,20.60
2023-01-13T10:43:38.725Z,14.73
2023-01-13T10:46:12.373Z,9.05
2023-01-13T10:48:52.125Z,10.07
2023-01-13T10:51:44.847Z,14.73
2023-01-13T10:54:11.833Z,15.65
2023-01-13T10:56:40.794Z,15.70
2023-01-13T10:59:23.349Z,14.30
2023-01-13T11:02:00.154Z,13.15
2023-01-13T11:05:03.536Z,14.55
2023-01-13T11:07:30.231Z,14.65
2023-01-13T11:10:02.246Z,14.40
2023-01-13T11:12:33.080Z,13.43
2023-01-13T11:15:08.601Z,16.85
2023-01-13T11:18:00.716Z,14.18
2023-01-13T11:20:42.544Z,12.25
2023-01-13T11:23:27.428Z,23.58
2023-01-13T11:26:06.645Z,11.52
2023-01-13T11:29:05.374Z,15.80
2023-01-13T11:31:46.269Z,14.77
2023-01-13T11:34:33.863Z,16.92
2023-01-13T11:37:07.197Z,18.60
2023-01-13T11:40:27.536Z,11.00
2023-01-13T11:43:18.280Z,12.57
2023-01-13T11:45:57.606Z,11.20
2023-01-13T11:48:29.875Z,11.68
2023-01-13T11:51:03.508Z,10.93
2023-01-13T11:53:53.835Z,14.25
2023-01-13T11:56:52.413Z,11.45
2023-01-13T11:59:34.272Z,13.20
2023-01-13T12:02:18.641Z,11.02
2023-01-13T12:04:51.571Z,19.42
2023-01-13T12:07:40.689Z,11.63
2023-01-13T12:11:28.818Z,16.00
2023-01-13T12:13:58.238Z,10.47
2023-01-13T12:16:31.293Z,16.00
2023-01-13T12:19:21.985Z,14.63
2023-01-13T12:22:12.774Z,18.90
2023-01-13T12:24:53.826Z,19.10
2023-01-13T12:27:41.413Z,13.38
2023-01-13T12:30:50.669Z,19.23
2023-01-13T12:33:45.011Z,11.95
2023-01-13T12:36:34.372Z,16.10
2023-01-13T12:39:13.291Z,18.90
2023-01-13T12:42:43.537Z,14.60
2023-01-13T12:45:10.080Z,7.70
2023-01-13T12:47:41.308Z,24.55
2023-01-13T12:50:26.066Z,17.58
2023-01-13T12:53:00.874Z,14.93
2023-01-13T12:55:32.498Z,16.23
2023-01-13T12:58:10.946Z,14.38
2023-01-13T13:01:10.478Z,12.65
2023-01-13T13:03:37.470Z,11.75
2023-01-13T13:06:12.694Z,16.52
2023-01-13T13:09:17.228Z,9.32
2023-01-13T13:12:02.905Z,12.63
2023-01-13T13:14:41.799Z,6.75
2023-01-13T13:17:29.971Z,14.93
2023-01-13T13:19:59.660Z,13.35
2023-01-13T13:22:26.235Z,8.05
2023-01-13T13:24:55.864Z,11.75
2023-01-13T13:27:32.570Z,11.82
2023-01-13T13:30:20.810Z,12.25
2023-01-13T13:33:05.991Z,13.48
2023-01-13T13:35:35.507Z,11.70
2023-01-13T13:39:08.171Z,12.23
2023-01-13T13:41:55.359Z,12.40
2023-01-13T13:44:59.112Z,13.35
2023-01-13T13:47:25.758Z,12.43
2023-01-13T13:49:54.542Z,11.50
2023-01-13T13:52:27.304Z,21.83
2023-01-13T13:55:04.216Z,17.27
2023-01-13T13:57:39.800Z,13.15
2023-01-13T14:02:57.011Z,9.00
2023-01-13T14:05:30.556Z,8.77
2023-01-13T14:08:16.988Z,8.65
2023-01-13T14:10:46.257Z,6.18
2023-01-13T14:13:28.713Z,15.65
2023-01-13T14:16:05.087Z,10.52
2023-01-13T14:19:01.434Z,7.78
2023-01-13T14:21:29.977Z,13.73
2023-01-13T14:24:14.060Z,18.35
2023-01-13T14:26:40.988Z,15.68
2023-01-13T14:29:16.133Z,16.02
2023-01-13T14:31:44.205Z,9.95
2023-01-13T14:34:32.411Z,15.18
2023-01-13T14:37:01.154Z,17.10
2023-01-13T14:39:39.791Z,15.35
2023-01-13T14:42:13.625Z,12.85
2023-01-13T14:44:49.587Z,11.55
2023-01-13T14:47:28.198Z,19.38
2023-01-13T14:50:07.495Z,14.82
2023-01-13T14:52:46.704Z,17.45
2023-01-13T14:55:40.337Z,18.38
2023-01-13T14:58:22.430Z,21.73
2023-01-13T15:00:51.155Z,18.67
2023-01-13T15:03:21.765Z,11.63
2023-01-13T15:05:51.933Z,11.18
2023-01-13T15:08:28.731Z,11.98
2023-01-13T15:11:00.708Z,14.77
2023-01-13T15:13:46.296Z,16.00
2023-01-13T15:16:26.332Z,12.63
2023-01-13T15:18:55.315Z,18.05
2023-01-13T15:21:23.518Z,13.90
2023-01-13T15:23:50.304Z,13.63
2023-01-13T15:26:27.487Z,17.67
2023-01-13T15:28:58.271Z,9.55
2023-01-13T15:31:26.368Z,19.75
2023-01-13T15:33:53.817Z,12.60
2023-01-13T15:36:31.334Z,14.70
2023-01-13T15:39:00.591Z,18.00
2023-01-13T15:41:46.285Z,13.73
2023-01-13T15:44:54.765Z,13.18
2023-01-13T15:47:23.460Z,13.73
2023-01-13T15:49:50.105Z,11.88
2023-01-13T15:52:28.000Z,15.52
2023-01-13T15:54:55.543Z,13.07
2023-01-13T15:57:28.728Z,15.75
2023-01-13T16:00:01.299Z,18.25
2023-01-13T16:02:33.530Z,15.98
2023-01-13T16:05:00.225Z,15.20
2023-01-13T16:07:26.865Z,20.42
2023-01-13T16:09:53.894Z,16.00
2023-01-13T16:12:20.560Z,24.70
2023-01-13T16:14:47.488Z,19.80
2023-01-13T16:17:21.151Z,16.50
2023-01-13T16:19:48.235Z,19.33
2023-01-13T16:22:16.434Z,16.00
2023-01-13T16:24:43.689Z,13.50
2023-01-13T16:27:18.735Z,11.07
2023-01-13T16:29:46.590Z,8.63
2023-01-13T16:32:13.470Z,12.80
2023-01-13T16:34:40.499Z,11.32
2023-01-13T16:37:22.999Z,6.93
2023-01-13T16:39:50.411Z,17.10
2023-01-13T16:42:17.247Z,11.20
2023-01-13T16:44:44.157Z,11.13
2023-01-13T16:47:16.659Z,10.70
2023-01-13T16:49:44.240Z,11.75
2023-01-13T16:52:11.030Z,12.25
2023-01-13T16:54:37.694Z,11.27
2023-01-13T16:57:04.773Z,10.00
2023-01-13T16:59:31.795Z,17.25
2023-01-13T17:01:58.544Z,12.32
2023-01-13T17:04:25.600Z,17.33
2023-01-13T17:06:57.208Z,11.48
2023-01-13T17:09:27.047Z,15.55
2023-01-13T17:11:54.552Z,14.32
2023-01-13T17:14:23.320Z,10.88
2023-01-13T17:16:52.829Z,15.68
2023-01-13T17:19:22.059Z,17.20
2023-01-13T17:21:50.969Z,12.10
2023-01-13T17:24:17.996Z,14.02
2023-01-13T17:26:50.580Z,18.85
2023-01-13T17:29:25.627Z,21.73
2023-01-13T17:31:52.603Z,16.17
2023-01-13T17:34:21.119Z,21.83
2023-01-13T17:36:48.319Z,10.05
2023-01-13T17:39:23.459Z,23.00
2023-01-13T17:41:51.175Z,22.65
2023-01-13T17:44:20.320Z,16.02
2023-01-13T17:46:47.734Z,16.77
2023-01-13T17:49:17.917Z,16.42
2023-01-13T17:51:48.110Z,19.75
2023-01-13T17:54:15.693Z,13.23
2023-01-13T17:56:42.798Z,16.38
2023-01-13T17:59:13.216Z,9.93
2023-01-13T18:01:40.209Z,7.13
2023-01-13T18:04:07.240Z,11.20
2023-01-13T18:06:33.988Z,18.45
2023-01-13T18:09:01.228Z,14.95
2023-01-13T18:11:28.211Z,12.65
2023-01-13T18:13:57.077Z,13.68
2023-01-13T18:16:26.666Z,19.40
2023-01-13T18:19:18.595Z,14.23
2023-01-13T18:22:05.396Z,12.30
2023-01-13T18:24:51.180Z,19.75
2023-01-13T18:27:29.495Z,18.70
2023-01-13T18:29:59.240Z,14.00
2023-01-13T18:32:32.910Z,17.48
2023-01-13T18:35:06.059Z,23.75
2023-01-13T18:37:35.854Z,10.23
2023-01-13T18:40:03.940Z,14.50
2023-01-13T18:42:48.990Z,16.25
2023-01-13T18:45:15.688Z,11.68
2023-01-13T18:47:42.343Z,18.52
2023-01-13T18:50:12.182Z,12.02
2023-01-13T18:52:38.801Z,11.20
2023-01-13T18:55:05.804Z,15.52
2023-01-13T18:57:32.436Z,12.02
2023-01-13T18:59:59.046Z,19.00
2023-01-13T19:02:27.669Z,12.57
2023-01-13T19:04:54.412Z,8.77
2023-01-13T19:07:28.221Z,16.92
2023-01-13T19:09:56.069Z,11.60
2023-01-13T19:12:31.004Z,14.00
2023-01-13T19:14:59.354Z,10.83
2023-01-13T19:17:30.896Z,16.45
2023-01-13T19:19:58.863Z,14.32
2023-01-13T19:22:32.694Z,16.20
2023-01-13T19:25:01.354Z,12.48
2023-01-13T19:27:28.522Z,26.17
2023-01-13T19:29:58.589Z,15.82
2023-01-13T19:32:25.713Z,19.27
2023-01-13T19:34:54.915Z,10.52
2023-01-13T19:37:21.633Z,18.48
2023-01-13T19:39:48.297Z,14.20
2023-01-13T19:42:33.455Z,16.88
2023-01-13T19:45:18.545Z,9.70
2023-01-13T19:47:45.902Z,18.08
2023-01-13T19:50:13.833Z,14.27
2023-01-13T19:52:44.018Z,17.98
2023-01-13T19:55:12.413Z,13.80
2023-01-13T19:57:41.240Z,20.13
2023-01-13T20:00:09.850Z,13.63
2023-01-13T20:02:44.773Z,17.77
2023-01-13T20:05:12.740Z,19.90
2023-01-13T20:07:39.636Z,14.07
2023-01-13T20:10:07.422Z,21.75
2023-01-13T20:12:34.023Z,16.13
2023-01-13T20:15:01.833Z,20.73
2023-01-13T20:17:30.690Z,16.27
2023-01-13T20:19:59.824Z,12.32
2023-01-13T20:22:26.494Z,16.70
2023-01-13T20:24:55.316Z,9.65
2023-01-13T20:27:23.900Z,18.25
2023-01-13T20:29:51.555Z,17.13
2023-01-13T20:32:18.686Z,20.42
2023-01-13T20:34:45.432Z,14.80
2023-01-13T20:37:12.188Z,13.38
2023-01-13T20:39:41.305Z,27.88
2023-01-13T20:42:29.105Z,17.20
2023-01-13T20:45:01.012Z,18.85
2023-01-13T20:47:29.502Z,22.13
2023-01-13T20:49:56.602Z,17.60
2023-01-13T20:52:23.614Z,29.75
2023-01-13T20:54:50.916Z,16.67
2023-01-13T20:57:19.495Z,18.20
2023-01-13T20:59:46.997Z,11.57
2023-01-13T21:02:16.481Z,15.15
2023-01-13T21:04:43.779Z,23.08
2023-01-13T21:07:10.891Z,17.50
2023-01-13T21:09:37.873Z,30.40
2023-01-13T21:12:24.647Z,12.85
2023-01-13T21:15:10.158Z,20.25
2023-01-13T21:17:55.491Z,21.35
2023-01-13T21:20:22.652Z,16.10
2023-01-13T21:22:50.074Z,15.02
2023-01-13T21:25:18.995Z,30.88
2023-01-13T21:27:47.515Z,19.02
2023-01-13T21:30:16.934Z,16.20
2023-01-13T21:32:45.413Z,22.40
2023-01-13T21:35:13.640Z,29.85
2023-01-13T21:37:42.982Z,14.98
2023-01-13T21:40:16.041Z,28.25
2023-01-13T21:43:03.567Z,20.45
2023-01-13T21:45:49.739Z,20.02
2023-01-13T21:48:16.989Z,25.92
2023-01-13T21:50:45.347Z,19.05
2023-01-13T21:53:12.087Z,31.25
2023-01-13T21:55:38.893Z,25.98
2023-01-13T21:58:14.735Z,20.73
2023-01-13T22:00:44.343Z,27.00
2023-01-13T22:03:14.833Z,32.95
2023-01-13T22:05:41.762Z,27.25
2023-01-13T22:08:12.079Z,19.63
2023-01-13T22:10:57.018Z,25.00
2023-01-13T22:13:42.571Z,33.10
2023-01-13T22:16:09.480Z,27.45
2023-01-13T22:18:36.287Z,32.22
2023-01-13T22:21:03.046Z,25.77
2023-01-13T22:23:30.936Z,32.33
2023-01-13T22:26:06.017Z,24.27
2023-01-13T22:28:41.099Z,19.92
2023-01-13T22:31:17.239Z,31.10
2023-01-13T22:36:15.284Z,18.27
2023-01-13T22:38:41.952Z,21.08
2023-01-13T22:41:10.046Z,22.95
2023-01-13T22:43:38.253Z,26.33
2023-01-13T22:46:11.820Z,23.90
2023-01-13T22:48:40.484Z,23.98
2023-01-13T22:51:18.580Z,23.45
2023-01-13T22:53:45.399Z,21.52
2023-01-13T22:56:22.023Z,26.77
2023-01-13T22:58:55.982Z,25.25
2023-01-13T23:01:24.165Z,23.30
2023-01-13T23:03:51.536Z,25.08
2023-01-13T23:06:20.412Z,18.95
2023-01-13T23:08:48.812Z,28.45
2023-01-13T23:11:18.251Z,26.63
2023-01-13T23:13:45.514Z,31.42
2023-01-13T23:16:20.929Z,30.98
2023-01-13T23:18:48.626Z,20.90
2023-01-13T23:21:19.967Z,27.33
2023-01-13T23:23:48.011Z,24.13
2023-01-13T23:26:15.469Z,27.90
2023-01-13T23:28:42.638Z,26.05
2023-01-13T23:31:17.533Z,26.58
2023-01-13T23:33:45.363Z,27.83
2023-01-13T23:36:17.296Z,31.42
2023-01-13T23:38:44.674Z,21.45
2023-01-13T23:41:14.610Z,19.67
2023-01-13T23:43:41.774Z,23.40
2023-01-13T23:46:12.449Z,32.40
2023-01-13T23:48:40.166Z,18.48
2023-01-13T23:51:11.460Z,25.42
2023-01-13T23:53:45.132Z,25.70
2023-01-13T23:56:16.028Z,30.88
2023-01-13T23:58:43.878Z,31.05
